CheckWX is a tool to help pilots better visualize weather data.  It is not intended as a substitute for an official pre-flight weather briefing.

12:24:44 UTC

SARF METAR
Formosa Airport
Formosa, Argentina
Current

25 mins ago

SARF 271200Z 05011KT CAVOK 12/09 Q1015
Observed
Jun-27 @ 12:00 UTC
Wind
  • 050° at 11 KTS
Visibility
10,000+ meters
Flight Rules
VFR
Cloud Levels
  • Clear skies
Temperature
12°C / 54°F
Dewpoint
C / 48°F
Humidity
82%
Altimeter
29.97" Hg
Pressure
1014.92 hPa
Previous

1 hour ago

SARF 271100Z 05004KT CAVOK 08/06 Q1014
Observed
Jun-27 @ 11:00 UTC
Wind
  • 050° at 4 KTS
Visibility
10,000+ meters
Flight Rules
VFR
Cloud Levels
  • Clear skies
Temperature
C / 46°F
Dewpoint
C / 43°F
Humidity
87%
Altimeter
29.94" Hg
Pressure
1013.92 hPa
Previous

2 hours ago

SARF 271000Z 05003KT CAVOK 08/07 Q1014
Observed
Jun-27 @ 10:00 UTC
Wind
  • 050° at 3 KTS
Visibility
10,000+ meters
Flight Rules
VFR
Cloud Levels
  • Clear skies
Temperature
C / 46°F
Dewpoint
C / 45°F
Humidity
93%
Altimeter
29.94" Hg
Pressure
1013.92 hPa